ORP weather

Orapa Airport
Orapa, Central District, Botswana

Public forecast

Using degrees Celsius for public forecast. Weather courtesy of forecast.io.

Closest aviation weather report (METAR) to Orapa Airport

Report is more than 6 hours old.

Closest report is Sua Pan Airport, 62.0 nm (114.8 km) NE. Retrieved 2018/09/23 16:00 UTC (1 year ago):

FBSN 231600Z 09007KT CAVOK 29/11 Q1017

Closest aviation forecast (TAF) to Orapa Airport

Forecast is more than 12 hours old.

Closest forecast is Francistown Airport, 120.9 nm (224.0 km) E. Retrieved 2019/09/17 18:11 UTC (30 days ago):

TAF FBFT 171600Z 1718/1824 11010KT CAVOK